Time;durP1;ratioP1;P1;durP2;ratioP2;P2;SDS_P1;SDS_P2;PMS_P1;PMS_P2;Temp;Humidity;BMP_temperature;BMP_pressure;BME280_temperature;BME280_humidity;BME280_pressure;Samples;Min_cycle;Max_cycle;Signal;HPM_P1;HPM_P2
2022/11/09 00:01:36;;;;;;;11.68;4.15;;;17.20;99.90;;;;;;4985971;28;20034;-76
2022/11/09 00:04:04;;;;;;;7.60;3.47;;;17.10;99.90;;;;;;4977069;28;20039;-76
2022/11/09 00:06:31;;;;;;;9.10;3.65;;;17.20;99.90;;;;;;4990052;28;20047;-76
2022/11/09 00:08:57;;;;;;;7.25;3.50;;;17.20;99.90;;;;;;4980270;28;20537;-76
2022/11/09 00:11:23;;;;;;;7.25;4.13;;;17.20;99.90;;;;;;4976854;28;20509;-77
2022/11/09 00:13:49;;;;;;;12.13;4.30;;;17.20;99.90;;;;;;4976316;28;20042;-76
2022/11/09 00:16:17;;;;;;;8.02;3.88;;;17.20;99.90;;;;;;4975035;28;20509;-76
2022/11/09 00:18:46;;;;;;;9.88;4.47;;;17.20;99.90;;;;;;4978151;28;20409;-76
2022/11/09 00:21:23;;;;;;;11.73;4.28;;;17.20;99.90;;;;;;4979571;28;20467;-76
2022/11/09 00:23:49;;;;;;;11.15;3.92;;;17.20;99.90;;;;;;4982687;28;20512;-76
2022/11/09 00:26:18;;;;;;;9.38;3.67;;;17.30;99.90;;;;;;4976651;28;20049;-76
2022/11/09 00:28:44;;;;;;;10.45;3.53;;;17.20;99.90;;;;;;4979748;28;20046;-77
2022/11/09 00:31:13;;;;;;;11.70;4.45;;;17.20;99.90;;;;;;4976053;28;20035;-76
2022/11/09 00:33:40;;;;;;;10.40;4.78;;;17.20;99.90;;;;;;4976372;28;20477;-77
2022/11/09 00:36:09;;;;;;;10.93;4.07;;;17.20;99.90;;;;;;4977929;28;20169;-76
2022/11/09 00:38:37;;;;;;;9.73;4.18;;;17.20;99.90;;;;;;4976314;28;20038;-76
2022/11/09 00:41:04;;;;;;;10.10;4.00;;;17.30;99.90;;;;;;4976575;28;20057;-75
2022/11/09 00:43:29;;;;;;;10.68;5.00;;;17.30;99.90;;;;;;4994198;28;20881;-76
2022/11/09 00:45:55;;;;;;;9.30;4.10;;;17.30;99.90;;;;;;4981833;28;20038;-76
2022/11/09 00:48:21;;;;;;;15.88;4.68;;;17.30;99.90;;;;;;4978198;28;20052;-76
2022/11/09 00:50:53;;;;;;;7.88;3.80;;;17.30;99.90;;;;;;4978345;28;24803;-76
2022/11/09 00:53:19;;;;;;;7.53;3.78;;;17.30;99.90;;;;;;4994078;28;20030;-77
2022/11/09 00:55:57;;;;;;;7.88;4.38;;;17.20;99.90;;;;;;4979775;28;20035;-77
2022/11/09 00:58:24;;;;;;;8.25;4.50;;;17.20;99.90;;;;;;4992316;28;20429;-76
2022/11/09 01:00:51;;;;;;;7.47;3.75;;;17.30;99.90;;;;;;4983953;28;20035;-76
2022/11/09 01:03:17;;;;;;;7.35;4.13;;;17.30;99.90;;;;;;4980659;28;20034;-76
2022/11/09 01:05:43;;;;;;;8.98;3.40;;;17.30;99.90;;;;;;4978230;28;20101;-76
2022/11/09 01:08:09;;;;;;;10.13;3.45;;;17.30;99.90;;;;;;4967221;28;20109;-77
2022/11/09 01:10:38;;;;;;;7.18;3.67;;;17.20;99.90;;;;;;4978288;28;20049;-77
2022/11/09 01:13:04;;;;;;;8.57;3.72;;;17.30;99.90;;;;;;4978715;28;20038;-77
2022/11/09 01:15:32;;;;;;;8.25;3.90;;;17.30;99.90;;;;;;4979911;28;20027;-77
2022/11/09 01:17:58;;;;;;;10.65;4.10;;;17.30;99.90;;;;;;4986018;28;20072;-77
2022/11/09 01:20:24;;;;;;;11.45;4.40;;;17.30;99.90;;;;;;4989242;28;20078;-77
2022/11/09 01:22:49;;;;;;;9.68;4.15;;;17.20;99.90;;;;;;4979551;28;20568;-75
2022/11/09 01:25:15;;;;;;;9.75;4.40;;;17.20;99.90;;;;;;4978377;28;20130;-74
2022/11/09 01:27:41;;;;;;;9.20;4.85;;;17.20;99.90;;;;;;4980790;28;20042;-74
2022/11/09 01:30:07;;;;;;;9.02;4.95;;;17.20;99.90;;;;;;4980948;28;20042;-73
2022/11/09 01:32:33;;;;;;;9.95;4.28;;;17.10;99.90;;;;;;4978124;28;20493;-74
2022/11/09 01:34:59;;;;;;;9.75;4.50;;;17.10;99.90;;;;;;4982362;28;20037;-73
2022/11/09 01:37:25;;;;;;;8.82;4.50;;;17.10;99.90;;;;;;4983240;28;20072;-74
2022/11/09 01:39:52;;;;;;;8.80;4.40;;;17.10;99.90;;;;;;4980669;28;20035;-74
2022/11/09 01:42:25;;;;;;;9.40;4.10;;;17.10;99.90;;;;;;4978506;28;20048;-74
2022/11/09 01:45:10;;;;;;;;;;;17.10;99.90;;;;;;4983932;28;20536;-74
2022/11/09 01:47:36;;;;;;;10.40;4.82;;;17.20;99.90;;;;;;4979105;28;20521;-74
2022/11/09 01:50:02;;;;;;;12.48;4.68;;;17.30;99.90;;;;;;4983879;28;20049;-73
2022/11/09 01:52:34;;;;;;;10.95;4.32;;;17.30;99.90;;;;;;4981534;28;20052;-74
2022/11/09 01:55:12;;;;;;;9.38;4.72;;;17.50;99.90;;;;;;4987261;28;20039;-74
2022/11/09 01:57:44;;;;;;;13.30;4.63;;;17.50;99.90;;;;;;4980449;28;20094;-73
2022/11/09 02:00:13;;;;;;;8.70;4.30;;;17.60;99.90;;;;;;4969576;28;20033;-73
2022/11/09 02:02:48;;;;;;;10.40;4.13;;;17.80;99.90;;;;;;4982133;28;20133;-74
2022/11/09 02:05:20;;;;;;;8.80;3.75;;;17.80;99.90;;;;;;4980597;28;20046;-75
2022/11/09 02:07:47;;;;;;;10.05;4.30;;;17.90;99.90;;;;;;4982182;28;20026;-74
2022/11/09 02:10:46;;;;;;;11.45;4.75;;;17.90;99.90;;;;;;4996975;28;20054;-73
2022/11/09 02:13:15;;;;;;;11.75;4.53;;;17.90;99.90;;;;;;4956297;28;20034;-74
2022/11/09 02:15:41;;;;;;;14.70;5.85;;;17.90;99.90;;;;;;4993237;28;20382;-74
2022/11/09 02:18:08;;;;;;;10.43;4.78;;;17.90;99.90;;;;;;4976852;28;20684;-73
2022/11/09 02:20:49;;;;;;;9.40;4.30;;;17.80;99.90;;;;;;4979869;28;20046;-73
2022/11/09 02:23:15;;;;;;;13.60;4.80;;;17.90;99.90;;;;;;4989339;28;20513;-74
2022/11/09 02:25:48;;;;;;;11.27;4.65;;;17.90;99.90;;;;;;4993852;28;20037;-73
2022/11/09 02:28:16;;;;;;;10.55;4.20;;;17.80;99.90;;;;;;4983759;28;20030;-73
2022/11/09 02:30:44;;;;;;;9.55;5.43;;;17.80;99.90;;;;;;4980330;28;20368;-73
2022/11/09 02:33:10;;;;;;;7.72;4.38;;;17.80;99.90;;;;;;4978517;28;21077;-74
2022/11/09 02:35:36;;;;;;;10.45;4.55;;;17.70;99.90;;;;;;4982407;28;20042;-73
2022/11/09 02:38:02;;;;;;;12.55;5.00;;;17.60;99.90;;;;;;4983552;28;20042;-73
2022/11/09 02:40:32;;;;;;;10.55;5.45;;;17.60;99.90;;;;;;4993904;28;20080;-73
2022/11/09 02:43:01;;;;;;;11.52;4.45;;;17.50;99.90;;;;;;4978401;28;20054;-74
2022/11/09 02:45:27;;;;;;;11.52;4.72;;;17.50;99.90;;;;;;4991523;28;20172;-77
2022/11/09 02:47:53;;;;;;;13.18;4.80;;;17.50;99.90;;;;;;4985462;28;20030;-76
2022/11/09 02:50:19;;;;;;;11.95;5.15;;;17.30;99.90;;;;;;4994946;28;20030;-78
2022/11/09 02:52:45;;;;;;;10.32;5.38;;;17.30;99.90;;;;;;4986726;28;20048;-76
2022/11/09 02:55:12;;;;;;;11.45;5.47;;;17.30;99.90;;;;;;4981791;28;20030;-77
2022/11/09 02:57:39;;;;;;;10.60;4.93;;;17.20;99.90;;;;;;4976800;28;20034;-77
2022/11/09 03:00:06;;;;;;;13.57;5.35;;;17.10;99.90;;;;;;4980020;28;20038;-77
2022/11/09 03:02:32;;;;;;;12.18;5.10;;;17.10;99.90;;;;;;4987999;28;20035;-78
2022/11/09 03:04:58;;;;;;;;;;;17.10;99.90;;;;;;4983953;28;20046;-77
2022/11/09 03:07:27;;;;;;;11.25;5.80;;;17.00;99.90;;;;;;4972417;28;19921;-77
2022/11/09 03:09:53;;;;;;;9.82;4.93;;;17.00;99.90;;;;;;4951528;28;20097;-77
2022/11/09 03:12:28;;;;;;;12.27;5.03;;;17.00;99.90;;;;;;4960516;28;20058;-76
2022/11/09 03:15:00;;;;;;;11.50;6.82;;;17.00;99.90;;;;;;4961199;28;20373;-77
2022/11/09 03:17:26;;;;;;;14.15;6.07;;;17.10;99.90;;;;;;4977441;28;20052;-77
2022/11/09 03:19:54;;;;;;;11.10;5.80;;;17.00;99.90;;;;;;4982537;28;20146;-78
2022/11/09 03:22:20;;;;;;;10.77;6.25;;;17.00;99.90;;;;;;4996925;28;20448;-77
2022/11/09 03:24:46;;;;;;;10.52;5.50;;;17.00;99.90;;;;;;4985748;28;20125;-78
2022/11/09 03:27:13;;;;;;;12.73;6.07;;;16.90;99.90;;;;;;4978733;28;20118;-76
2022/11/09 03:29:40;;;;;;;13.07;6.18;;;16.90;99.90;;;;;;4985744;28;20035;-77
2022/11/09 03:32:07;;;;;;;8.77;5.82;;;16.90;99.90;;;;;;4986911;28;20088;-77
2022/11/09 03:34:35;;;;;;;14.27;6.20;;;16.90;99.90;;;;;;4977775;28;20103;-77
2022/11/09 03:37:01;;;;;;;12.45;5.95;;;16.80;99.90;;;;;;4981581;28;20042;-77
2022/11/09 03:39:27;;;;;;;13.32;7.10;;;16.80;99.90;;;;;;4980225;28;20038;-78
2022/11/09 03:41:52;;;;;;;13.05;7.22;;;16.80;99.90;;;;;;4985874;28;20046;-76
2022/11/09 03:44:19;;;;;;;13.18;6.32;;;16.80;99.90;;;;;;4978512;28;20037;-77
2022/11/09 03:46:45;;;;;;;15.90;7.07;;;16.70;99.90;;;;;;4982559;28;20125;-76
2022/11/09 03:49:11;;;;;;;12.52;7.47;;;16.70;99.90;;;;;;4981679;28;20089;-77
2022/11/09 03:51:37;;;;;;;19.45;8.25;;;16.70;99.90;;;;;;4979340;28;20038;-76
2022/11/09 03:54:03;;;;;;;16.83;8.20;;;16.70;99.90;;;;;;4976005;28;20125;-77
2022/11/09 03:56:29;;;;;;;17.08;8.88;;;16.60;99.90;;;;;;4979829;28;20039;-77
2022/11/09 03:58:55;;;;;;;15.23;8.25;;;16.60;99.90;;;;;;4982474;28;20042;-77
2022/11/09 04:01:21;;;;;;;18.20;9.55;;;16.60;99.90;;;;;;4992840;28;20122;-76
2022/11/09 04:03:47;;;;;;;17.00;9.00;;;16.60;99.90;;;;;;4978084;28;20035;-77
2022/11/09 04:06:13;;;;;;;15.60;8.80;;;16.50;99.90;;;;;;4994513;28;20034;-78
2022/11/09 04:08:41;;;;;;;17.05;8.93;;;16.50;99.90;;;;;;4983450;28;20031;-77
2022/11/09 04:11:08;;;;;;;13.25;8.43;;;16.40;99.90;;;;;;4984945;28;20042;-76
2022/11/09 04:13:33;;;;;;;15.65;8.95;;;16.50;99.90;;;;;;4982147;28;20441;-76
2022/11/09 04:15:59;;;;;;;19.70;8.20;;;16.40;99.90;;;;;;4981239;28;20047;-77
2022/11/09 04:18:25;;;;;;;15.45;8.25;;;16.40;99.90;;;;;;4979200;28;20056;-77
2022/11/09 04:20:51;;;;;;;14.77;7.75;;;16.40;99.90;;;;;;4979950;28;20027;-77
2022/11/09 04:23:17;;;;;;;14.73;8.25;;;16.30;99.90;;;;;;4979154;28;20053;-77
2022/11/09 04:25:46;;;;;;;14.70;7.38;;;16.30;99.90;;;;;;4980259;28;20031;-77
2022/11/09 04:28:12;;;;;;;14.82;7.65;;;16.30;99.90;;;;;;4982599;28;20500;-76
2022/11/09 04:30:38;;;;;;;15.60;7.50;;;16.40;99.90;;;;;;4977090;28;20109;-77
2022/11/09 04:33:05;;;;;;;13.10;6.93;;;16.30;99.90;;;;;;4977436;28;20106;-76
2022/11/09 04:35:32;;;;;;;12.35;7.60;;;16.30;99.90;;;;;;4979853;28;20453;-77
2022/11/09 04:38:03;;;;;;;11.75;6.22;;;16.30;99.90;;;;;;4977458;28;20038;-77
2022/11/09 04:40:32;;;;;;;14.15;6.07;;;16.30;99.90;;;;;;4980724;28;20038;-77
2022/11/09 04:43:04;;;;;;;12.60;6.05;;;16.30;99.90;;;;;;4975973;28;20061;-77
2022/11/09 04:45:32;;;;;;;12.43;6.22;;;16.30;99.90;;;;;;4979905;28;20033;-77
2022/11/09 04:48:03;;;;;;;11.45;6.57;;;16.30;99.90;;;;;;4980649;28;20454;-77
2022/11/09 04:50:29;;;;;;;9.52;5.45;;;16.20;99.90;;;;;;4979522;28;20434;-77
2022/11/09 04:53:10;;;;;;;11.13;5.90;;;16.20;99.90;;;;;;4981234;28;20123;-78
2022/11/09 04:55:37;;;;;;;12.30;5.65;;;16.20;99.90;;;;;;4983874;28;20093;-78
2022/11/09 04:58:03;;;;;;;13.00;5.68;;;16.30;99.90;;;;;;4983525;28;20697;-76
2022/11/09 05:00:30;;;;;;;11.95;5.80;;;16.20;99.90;;;;;;4986631;28;20090;-77
2022/11/09 05:03:02;;;;;;;13.05;6.35;;;16.10;99.90;;;;;;4987302;28;20053;-77
2022/11/09 05:05:29;;;;;;;13.38;6.40;;;16.10;99.90;;;;;;4986106;28;20081;-76
2022/11/09 05:07:55;;;;;;;13.35;6.43;;;16.00;99.90;;;;;;4984783;28;20034;-77
2022/11/09 05:10:22;;;;;;;13.20;6.40;;;16.10;99.90;;;;;;4987535;28;20574;-77
2022/11/09 05:12:48;;;;;;;13.10;6.93;;;16.10;99.90;;;;;;4975638;28;20121;-77
2022/11/09 05:15:13;;;;;;;12.50;6.25;;;16.00;99.90;;;;;;4989362;28;20046;-76
2022/11/09 05:17:41;;;;;;;10.63;7.32;;;16.10;99.90;;;;;;4983694;28;20304;-77
2022/11/09 05:20:08;;;;;;;11.30;6.75;;;16.00;99.90;;;;;;4982153;28;20113;-77
2022/11/09 05:25:34;;;;;;;13.20;7.13;;;16.00;99.90;;;;;;4981756;28;20039;-78
2022/11/09 05:27:59;;;;;;;14.50;7.90;;;16.00;99.90;;;;;;4986424;28;20035;-77
2022/11/09 05:30:25;;;;;;;16.17;7.75;;;16.00;99.90;;;;;;4981539;28;20058;-77
2022/11/09 05:32:51;;;;;;;14.57;7.82;;;16.00;99.90;;;;;;4984641;28;20031;-77
2022/11/09 05:35:17;;;;;;;16.05;8.25;;;15.90;99.90;;;;;;4990945;28;20034;-76
2022/11/09 05:37:49;;;;;;;13.82;7.05;;;15.90;99.90;;;;;;4986331;28;20046;-76
2022/11/09 05:40:16;;;;;;;13.40;6.95;;;15.90;99.90;;;;;;4980719;28;20599;-77
2022/11/09 05:42:42;;;;;;;13.55;7.50;;;15.90;99.90;;;;;;4981167;28;20174;-77
2022/11/09 05:45:10;;;;;;;13.55;7.65;;;15.90;99.90;;;;;;4990038;28;20034;-77
2022/11/09 05:47:37;;;;;;;14.60;7.60;;;15.90;99.90;;;;;;4985552;28;20084;-77
2022/11/09 05:50:04;;;;;;;14.95;8.35;;;16.00;99.90;;;;;;4979292;28;20035;-77
2022/11/09 05:52:30;;;;;;;15.38;7.80;;;15.90;99.90;;;;;;4984794;28;20128;-78
2022/11/09 05:54:55;;;;;;;13.80;6.35;;;15.90;99.90;;;;;;4986607;28;20498;-78
2022/11/09 05:57:22;;;;;;;12.52;5.13;;;16.10;99.90;;;;;;4988505;28;20225;-78
2022/11/09 05:59:47;;;;;;;12.65;4.65;;;16.40;99.90;;;;;;4989172;28;20045;-78
2022/11/09 06:02:13;;;;;;;12.95;4.55;;;16.60;99.90;;;;;;4983229;28;20541;-77
2022/11/09 06:04:40;;;;;;;8.15;4.20;;;16.90;99.90;;;;;;4989704;28;20066;-78
2022/11/09 06:07:06;;;;;;;8.45;3.40;;;17.20;99.90;;;;;;4983841;28;20043;-77
2022/11/09 06:09:33;;;;;;;10.07;3.95;;;17.40;99.90;;;;;;4984508;28;20050;-77
2022/11/09 06:11:59;;;;;;;7.88;3.78;;;17.60;99.90;;;;;;5000054;28;20117;-77
2022/11/09 06:14:26;;;;;;;11.13;3.40;;;17.80;99.90;;;;;;4981085;28;20122;-77
2022/11/09 06:16:51;;;;;;;7.53;3.15;;;17.80;99.90;;;;;;4983123;28;20117;-78
2022/11/09 06:19:17;;;;;;;11.23;3.13;;;17.90;99.90;;;;;;4983253;28;20039;-77
2022/11/09 06:21:43;;;;;;;7.30;2.67;;;17.90;99.90;;;;;;4960579;28;20097;-78
2022/11/09 06:24:09;;;;;;;10.75;3.20;;;18.00;99.90;;;;;;4987316;28;20030;-77
2022/11/09 06:26:35;;;;;;;9.27;3.30;;;18.00;99.90;;;;;;4986250;28;20135;-77
2022/11/09 06:29:01;;;;;;;9.02;3.08;;;18.10;99.90;;;;;;4986388;28;20105;-77
2022/11/09 06:31:27;;;;;;;8.30;4.00;;;18.10;99.90;;;;;;4983362;28;21518;-78
2022/11/09 06:33:55;;;;;;;9.15;3.60;;;18.20;99.90;;;;;;4957544;28;20043;-78
2022/11/09 06:36:20;;;;;;;9.13;3.35;;;18.30;99.90;;;;;;4987472;28;20086;-77
2022/11/09 06:38:51;;;;;;;9.60;3.55;;;18.30;99.90;;;;;;4975979;28;20030;-77
2022/11/09 06:41:17;;;;;;;8.80;2.75;;;18.30;99.90;;;;;;4982104;28;20074;-78
2022/11/09 06:43:43;;;;;;;10.80;3.33;;;18.40;99.90;;;;;;4976129;28;20041;-78
2022/11/09 06:46:09;;;;;;;7.20;2.72;;;18.50;99.90;;;;;;4985528;28;20034;-77
2022/11/09 06:48:36;;;;;;;6.80;2.92;;;18.60;99.90;;;;;;4980653;28;20042;-78
2022/11/09 06:51:03;;;;;;;;;;;18.60;99.90;;;;;;4975337;28;20030;-77
2022/11/09 06:53:30;;;;;;;12.00;2.97;;;18.60;99.90;;;;;;4982278;28;19925;-77
2022/11/09 06:56:01;;;;;;;7.75;2.67;;;18.60;99.90;;;;;;4980045;28;20514;-77
2022/11/09 06:58:27;;;;;;;7.35;2.55;;;18.70;99.90;;;;;;4981569;28;20042;-77
2022/11/09 07:00:54;;;;;;;7.10;2.88;;;18.80;99.90;;;;;;4979597;28;20422;-77
2022/11/09 07:03:21;;;;;;;7.80;2.67;;;18.90;99.90;;;;;;4980113;28;20038;-77
2022/11/09 07:05:48;;;;;;;5.70;2.15;;;18.90;99.90;;;;;;4984273;28;20058;-76
2022/11/09 07:08:14;;;;;;;8.88;2.90;;;19.00;99.90;;;;;;4983185;28;20501;-78
2022/11/09 07:10:40;;;;;;;5.80;2.45;;;19.10;99.90;;;;;;4981837;28;20027;-78
2022/11/09 07:13:07;;;;;;;6.75;2.72;;;19.10;99.90;;;;;;4987744;28;20034;-77
2022/11/09 07:15:33;;;;;;;;;;;19.10;99.90;;;;;;4984166;28;20082;-78
2022/11/09 07:18:00;;;;;;;11.57;2.78;;;19.20;99.90;;;;;;5006000;28;19917;-78
2022/11/09 07:20:27;;;;;;;8.63;2.50;;;19.20;99.90;;;;;;4968836;28;20117;-77
2022/11/09 07:22:53;;;;;;;9.30;2.15;;;19.30;99.90;;;;;;4987087;28;20106;-79
2022/11/09 07:25:19;;;;;;;4.97;2.03;;;19.30;99.90;;;;;;4987239;28;20055;-78
2022/11/09 07:27:45;;;;;;;7.28;1.92;;;19.30;99.90;;;;;;4990987;28;20070;-78
2022/11/09 07:30:11;;;;;;;8.60;2.22;;;19.40;99.90;;;;;;4984710;28;20034;-78
2022/11/09 07:32:38;;;;;;;9.18;2.40;;;19.50;99.90;;;;;;4986238;28;20030;-78
2022/11/09 07:35:04;;;;;;;8.38;2.40;;;19.50;99.90;;;;;;4985827;28;20098;-78
2022/11/09 07:37:31;;;;;;;5.25;2.35;;;19.50;99.90;;;;;;5000425;28;20042;-79
2022/11/09 07:39:57;;;;;;;7.28;2.63;;;19.60;99.90;;;;;;4984806;28;20059;-77
2022/11/09 07:42:23;;;;;;;8.32;2.30;;;19.60;99.90;;;;;;4981752;28;20046;-77
2022/11/09 07:44:50;;;;;;;7.15;2.85;;;19.60;99.90;;;;;;4987088;28;20038;-77
2022/11/09 07:47:17;;;;;;;8.75;2.67;;;19.60;99.90;;;;;;4980831;28;20081;-78
2022/11/09 07:49:43;;;;;;;7.57;3.05;;;19.70;99.90;;;;;;4983597;28;20039;-76
2022/11/09 07:52:09;;;;;;;6.88;2.40;;;19.70;99.90;;;;;;4981060;28;20039;-78
2022/11/09 07:54:35;;;;;;;10.65;2.80;;;19.80;99.90;;;;;;4984242;28;20084;-78
2022/11/09 07:57:01;;;;;;;6.50;2.83;;;19.80;99.90;;;;;;4983980;28;20066;-78
2022/11/09 07:59:27;;;;;;;7.18;2.42;;;19.90;99.90;;;;;;4982099;28;20041;-78
2022/11/09 08:01:52;;;;;;;9.40;2.95;;;19.90;99.90;;;;;;4987599;28;20076;-77
2022/11/09 08:04:18;;;;;;;7.20;3.58;;;20.00;99.90;;;;;;4987501;28;20369;-78
2022/11/09 08:06:45;;;;;;;8.70;2.80;;;20.00;99.90;;;;;;4980642;28;20066;-77
2022/11/09 08:09:11;;;;;;;5.30;2.60;;;20.10;99.90;;;;;;4994266;28;20325;-77
2022/11/09 08:11:37;;;;;;;10.23;2.80;;;20.10;99.90;;;;;;4968834;28;20046;-76
2022/11/09 08:14:02;;;;;;;8.40;3.10;;;20.20;99.90;;;;;;4975371;28;20039;-77
2022/11/09 08:16:29;;;;;;;7.47;2.72;;;20.10;99.90;;;;;;4987262;28;20051;-77
2022/11/09 08:18:54;;;;;;;7.20;2.85;;;20.10;99.90;;;;;;4992380;28;20043;-79
2022/11/09 08:21:20;;;;;;;6.82;3.08;;;20.00;99.90;;;;;;4980780;28;20038;-77
2022/11/09 08:23:46;;;;;;;9.10;3.60;;;19.90;99.90;;;;;;4986303;28;20031;-78
2022/11/09 08:26:12;;;;;;;6.60;2.80;;;19.90;99.90;;;;;;4986696;28;20026;-78
2022/11/09 08:28:37;;;;;;;9.88;3.05;;;19.90;99.90;;;;;;4986778;28;20041;-77
2022/11/09 08:31:06;;;;;;;8.50;3.25;;;19.90;99.90;;;;;;4985737;28;20037;-77
2022/11/09 08:33:36;;;;;;;9.32;3.42;;;19.80;99.90;;;;;;4989334;28;20130;-77
2022/11/09 08:36:08;;;;;;;8.35;3.53;;;19.80;99.90;;;;;;5002527;28;20030;-79
2022/11/09 08:38:35;;;;;;;8.93;3.50;;;19.80;99.90;;;;;;5001900;28;20038;-78
2022/11/09 08:41:00;;;;;;;7.25;3.13;;;19.90;99.90;;;;;;4987956;28;20039;-78
2022/11/09 08:43:26;;;;;;;9.50;3.42;;;19.90;99.90;;;;;;4989297;28;20491;-77
2022/11/09 08:45:52;;;;;;;11.00;3.58;;;20.00;99.90;;;;;;5012110;28;20042;-78
2022/11/09 08:48:18;;;;;;;6.47;3.08;;;20.00;99.90;;;;;;4991608;28;20033;-78
2022/11/09 08:50:44;;;;;;;6.82;3.67;;;20.10;99.90;;;;;;4993997;28;20038;-77
2022/11/09 08:53:10;;;;;;;7.82;3.63;;;20.20;99.90;;;;;;4990518;28;20041;-78
2022/11/09 08:55:36;;;;;;;13.20;4.55;;;20.20;99.90;;;;;;4986362;28;20494;-77
2022/11/09 08:58:03;;;;;;;9.20;3.53;;;20.30;99.90;;;;;;4983459;28;20136;-78
2022/11/09 09:00:30;;;;;;;8.10;3.13;;;20.40;99.90;;;;;;4990005;28;20130;-78
2022/11/09 09:02:56;;;;;;;6.95;3.67;;;20.40;99.90;;;;;;4987714;28;20050;-78
2022/11/09 09:05:22;;;;;;;7.22;3.28;;;20.50;99.90;;;;;;4990212;28;20689;-78
2022/11/09 09:07:48;;;;;;;6.57;3.03;;;20.50;99.90;;;;;;4983785;28;20042;-79
2022/11/09 09:10:13;;;;;;;9.35;2.97;;;20.60;99.90;;;;;;4985601;28;20038;-78
2022/11/09 09:12:39;;;;;;;9.25;2.80;;;20.60;99.90;;;;;;4986658;28;20050;-78
2022/11/09 09:15:07;;;;;;;8.57;3.20;;;20.60;99.90;;;;;;4989546;28;20046;-78
2022/11/09 09:17:34;;;;;;;7.57;3.10;;;20.70;99.90;;;;;;4988462;28;20069;-81
2022/11/09 09:20:02;;;;;;;9.52;2.78;;;20.80;99.90;;;;;;4991200;28;20174;-78
2022/11/09 09:22:27;;;;;;;7.13;2.80;;;20.80;99.90;;;;;;4994554;28;20046;-80
2022/11/09 09:24:53;;;;;;;8.70;3.00;;;20.90;99.90;;;;;;4986567;28;20039;-79
2022/11/09 09:27:19;;;;;;;9.52;3.90;;;20.90;99.90;;;;;;4984288;28;20461;-78
2022/11/09 09:29:45;;;;;;;11.95;2.90;;;20.80;99.90;;;;;;4983738;28;20652;-78
2022/11/09 09:32:10;;;;;;;9.13;2.58;;;20.90;99.90;;;;;;4985779;28;20027;-78
2022/11/09 09:34:36;;;;;;;8.50;2.83;;;21.10;99.90;;;;;;4987487;28;20034;-79
2022/11/09 09:37:02;;;;;;;7.50;2.65;;;21.00;99.90;;;;;;4986944;28;20038;-78
2022/11/09 09:39:27;;;;;;;6.60;2.55;;;21.20;99.90;;;;;;4988939;28;20053;-77
2022/11/09 09:41:57;;;;;;;4.80;2.22;;;21.30;99.90;;;;;;4984881;28;20119;-78
2022/11/09 09:44:53;;;;;;;7.40;2.42;;;21.30;99.90;;;;;;4990998;28;20046;-78
2022/11/09 09:47:22;;;;;;;;;;;21.20;99.90;;;;;;4973044;28;20193;-78
2022/11/09 09:50:22;;;;;;;6.25;2.58;;;21.20;99.90;;;;;;4987004;28;19921;-77
2022/11/09 09:53:26;;;;;;;8.15;2.60;;;21.20;99.90;;;;;;4982456;28;20516;-78
2022/11/09 09:56:14;;;;;;;7.28;2.42;;;21.10;99.90;;;;;;4975204;28;20027;-78
2022/11/09 09:58:50;;;;;;;6.57;2.35;;;21.20;99.90;;;;;;4985782;28;20459;-79
2022/11/09 10:01:19;;;;;;;5.63;2.33;;;21.30;99.90;;;;;;4988446;28;20026;-78
2022/11/09 10:03:47;;;;;;;6.80;2.10;;;21.50;99.90;;;;;;4990232;28;20057;-77
2022/11/09 10:06:31;;;;;;;5.28;2.33;;;21.60;99.90;;;;;;4974448;28;20084;-78
2022/11/09 10:09:16;;;;;;;6.80;2.33;;;21.60;99.90;;;;;;4986059;28;20030;-78
2022/11/09 10:11:50;;;;;;;6.85;2.58;;;21.80;99.90;;;;;;4981236;28;20046;-78
2022/11/09 10:14:22;;;;;;;5.07;2.17;;;21.90;99.90;;;;;;4997633;28;20148;-78
2022/11/09 10:16:51;;;;;;;7.22;2.58;;;22.10;99.90;;;;;;4986243;28;20053;-79
2022/11/09 10:19:40;;;;;;;6.82;2.13;;;22.30;99.90;;;;;;4971213;28;20521;-78
2022/11/09 10:22:15;;;;;;;12.40;2.35;;;22.40;99.90;;;;;;4975555;28;20023;-78
2022/11/09 10:25:05;;;;;;;9.77;2.65;;;22.30;99.90;;;;;;4983495;28;20049;-78
2022/11/09 10:27:51;;;;;;;4.53;1.70;;;22.40;99.90;;;;;;4985166;28;20069;-78
2022/11/09 10:30:19;;;;;;;7.00;2.17;;;22.30;99.90;;;;;;4985464;28;20050;-78
2022/11/09 10:32:50;;;;;;;10.48;2.53;;;22.30;99.90;;;;;;4988388;28;20073;-80
2022/11/09 10:35:34;;;;;;;8.32;2.30;;;22.50;99.90;;;;;;4972469;28;20727;-78
2022/11/09 10:37:59;;;;;;;9.45;2.60;;;22.60;99.90;;;;;;4982791;28;20109;-77
2022/11/09 10:40:47;;;;;;;12.02;3.92;;;22.50;99.90;;;;;;4984995;28;20133;-78
2022/11/09 10:43:14;;;;;;;6.70;2.08;;;22.50;99.90;;;;;;4995755;28;20118;-79
2022/11/09 10:45:42;;;;;;;6.28;2.15;;;22.40;99.90;;;;;;4990645;28;20118;-79
2022/11/09 10:48:10;;;;;;;7.93;2.05;;;22.30;99.90;;;;;;4986278;28;20583;-79
2022/11/09 10:50:42;;;;;;;5.70;1.75;;;22.20;99.90;;;;;;4988967;28;20039;-78
2022/11/09 10:53:20;;;;;;;8.45;2.90;;;22.20;99.90;;;;;;4985419;28;20413;-78
2022/11/09 10:56:01;;;;;;;9.27;2.22;;;22.30;99.90;;;;;;4983416;28;20062;-78
2022/11/09 10:58:30;;;;;;;17.10;3.38;;;22.50;99.90;;;;;;4979570;28;20053;-79
2022/11/09 11:01:12;;;;;;;10.60;2.30;;;22.60;99.90;;;;;;4996883;28;20093;-77
2022/11/09 11:03:39;;;;;;;9.68;2.22;;;22.60;99.90;;;;;;4985346;28;20057;-78
2022/11/09 11:06:06;;;;;;;7.25;2.20;;;22.70;99.90;;;;;;4979607;28;20077;-79
2022/11/09 11:08:32;;;;;;;5.72;1.80;;;23.30;99.70;;;;;;4999110;28;20441;-77
2022/11/09 11:11:18;;;;;;;7.80;2.50;;;23.70;99.00;;;;;;4986872;28;20061;-78
2022/11/09 11:13:45;;;;;;;7.80;2.17;;;23.10;99.50;;;;;;4980535;28;20512;-78
2022/11/09 11:16:26;;;;;;;;;;;23.20;99.30;;;;;;4985845;28;20430;-80
2022/11/09 11:18:52;;;;;;;6.40;2.10;;;23.40;99.20;;;;;;4990271;28;20036;-77
2022/11/09 11:21:23;;;;;;;4.38;2.53;;;23.40;99.20;;;;;;4984769;28;20382;-78
2022/11/09 11:24:12;;;;;;;10.05;2.20;;;23.30;98.90;;;;;;4986165;28;20038;-79
2022/11/09 11:26:58;;;;;;;5.90;2.05;;;23.10;99.20;;;;;;4980404;28;20050;-79
2022/11/09 11:29:39;;;;;;;7.47;2.50;;;23.10;99.50;;;;;;4980069;28;20481;-77
2022/11/09 11:32:13;;;;;;;4.95;1.75;;;23.30;99.40;;;;;;4974697;28;20026;-78
2022/11/09 11:34:39;;;;;;;6.60;1.88;;;23.40;99.20;;;;;;4983776;28;20030;-79
2022/11/09 11:37:53;;;;;;;5.88;2.08;;;23.70;99.00;;;;;;4985315;28;20129;-78
2022/11/09 11:40:28;;;;;;;7.38;2.10;;;23.70;98.80;;;;;;5013954;28;20041;-78
2022/11/09 11:43:48;;;;;;;7.47;1.88;;;23.50;99.00;;;;;;4987891;28;20121;-78
2022/11/09 11:46:23;;;;;;;8.73;2.03;;;23.40;99.10;;;;;;4980553;28;20049;-78
2022/11/09 11:49:27;;;;;;;8.43;2.00;;;23.40;99.30;;;;;;4977468;28;20042;-78
2022/11/09 11:52:24;;;;;;;6.50;3.05;;;23.00;99.60;;;;;;4976825;28;20849;-77
2022/11/09 11:55:15;;;;;;;16.42;3.40;;;23.90;98.90;;;;;;4977021;28;20038;-79
2022/11/09 11:57:56;;;;;;;;;;;24.20;98.00;;;;;;4983480;28;20064;-77
2022/11/09 12:00:21;;;;;;;11.20;2.67;;;24.50;98.00;;;;;;4973668;28;20305;-78
2022/11/09 12:02:47;;;;;;;5.90;1.70;;;24.70;97.70;;;;;;4984241;28;20042;-79
2022/11/09 12:05:24;;;;;;;5.95;2.00;;;24.50;97.70;;;;;;4979626;28;20120;-77
2022/11/09 12:08:02;;;;;;;4.97;2.03;;;24.30;98.00;;;;;;4984552;28;20039;-78
2022/11/09 12:11:07;;;;;;;8.20;2.33;;;24.20;98.20;;;;;;4984178;28;20043;-78
2022/11/09 12:13:57;;;;;;;4.15;1.75;;;24.10;98.10;;;;;;4978790;28;20042;-79
2022/11/09 12:17:00;;;;;;;4.53;1.75;;;23.90;98.50;;;;;;4986580;28;20053;-78
2022/11/09 12:20:10;;;;;;;6.80;1.60;;;24.50;98.00;;;;;;4982647;28;20062;-80
2022/11/09 12:22:59;;;;;;;5.03;1.77;;;24.20;97.90;;;;;;4978744;28;20505;-79
2022/11/09 12:25:42;;;;;;;5.80;2.00;;;24.10;98.30;;;;;;4992722;28;20038;-79
2022/11/09 12:28:26;;;;;;;4.88;1.85;;;24.10;98.40;;;;;;4981801;28;20042;-79
2022/11/09 12:31:16;;;;;;;8.88;2.08;;;23.90;98.40;;;;;;4995466;28;20045;-78
2022/11/09 12:33:51;;;;;;;7.00;2.35;;;23.80;98.70;;;;;;4989798;28;20977;-78
2022/11/09 12:36:21;;;;;;;12.63;5.78;;;23.50;98.90;;;;;;5001352;28;20044;-80
2022/11/09 12:39:00;;;;;;;5.80;2.03;;;23.50;99.30;;;;;;4986511;28;20069;-79
2022/11/09 12:41:35;;;;;;;6.32;2.17;;;23.60;99.00;;;;;;4986290;28;20053;-78
2022/11/09 12:44:17;;;;;;;7.43;2.50;;;23.90;98.80;;;;;;4983915;28;20030;-79
2022/11/09 12:46:54;;;;;;;7.10;2.20;;;23.60;98.90;;;;;;4964196;28;20078;-78
2022/11/09 12:49:36;;;;;;;12.30;2.00;;;23.70;99.00;;;;;;4984061;28;20034;-78
2022/11/09 12:52:05;;;;;;;7.00;1.85;;;23.50;99.10;;;;;;4967598;28;20030;-79
2022/11/09 12:54:33;;;;;;;5.80;2.30;;;23.20;99.50;;;;;;4987659;28;20038;-78
2022/11/09 12:57:03;;;;;;;4.28;1.70;;;23.30;99.50;;;;;;4987776;28;20166;-79
2022/11/09 12:59:29;;;;;;;6.60;1.88;;;23.30;99.60;;;;;;4991516;28;20040;-79
2022/11/09 13:01:58;;;;;;;8.05;1.70;;;23.40;99.60;;;;;;4987225;28;20098;-79
2022/11/09 13:04:24;;;;;;;8.15;2.10;;;23.50;99.70;;;;;;4984881;28;20035;-79